Time;durP1;ratioP1;P1;durP2;ratioP2;P2;SDS_P1;SDS_P2;PMS_P1;PMS_P2;Temp;Humidity;BMP_temperature;BMP_pressure;BME280_temperature;BME280_humidity;BME280_pressure;Samples;Min_cycle;Max_cycle;Signal;HPM_P1;HPM_P2
2022/07/18 00:00:50;;;;;;;10.15;5.60;;;18.30;99.90;;;;;;5105595;28;20531;-63
2022/07/18 00:03:15;;;;;;;9.10;6.00;;;18.30;99.90;;;;;;5096775;28;20083;-62
2022/07/18 00:05:41;;;;;;;10.32;6.03;;;18.30;99.90;;;;;;5107192;28;20193;-62
2022/07/18 00:08:06;;;;;;;10.82;6.40;;;18.10;99.90;;;;;;5101458;28;20111;-63
2022/07/18 00:10:32;;;;;;;9.15;5.90;;;18.20;99.90;;;;;;5091939;28;20046;-63
2022/07/18 00:12:57;;;;;;;10.02;5.85;;;18.10;99.90;;;;;;5096105;28;20047;-63
2022/07/18 00:15:23;;;;;;;9.80;5.90;;;18.10;99.90;;;;;;5090419;28;20035;-63
2022/07/18 00:17:49;;;;;;;9.48;6.10;;;18.10;99.90;;;;;;5107759;28;20121;-62
2022/07/18 00:20:14;;;;;;;11.32;6.60;;;18.00;99.90;;;;;;5106983;28;20044;-62
2022/07/18 00:22:40;;;;;;;11.68;6.25;;;18.00;99.90;;;;;;5108414;28;20059;-63
2022/07/18 00:25:06;;;;;;;8.38;5.78;;;18.00;99.90;;;;;;5093316;28;20364;-63
2022/07/18 00:27:32;;;;;;;9.73;6.60;;;17.90;99.90;;;;;;5087559;28;20040;-63
2022/07/18 00:29:58;;;;;;;10.43;6.60;;;17.90;99.90;;;;;;5090160;28;20121;-62
2022/07/18 00:32:23;;;;;;;9.60;6.50;;;17.90;99.90;;;;;;5106099;28;20040;-62
2022/07/18 00:34:49;;;;;;;10.85;6.85;;;17.90;99.90;;;;;;5106411;28;20047;-62
2022/07/18 00:37:14;;;;;;;10.27;6.18;;;17.80;99.90;;;;;;5107925;28;20047;-63
2022/07/18 00:39:40;;;;;;;10.75;6.43;;;17.80;99.90;;;;;;5092552;28;20390;-63
2022/07/18 00:42:05;;;;;;;11.10;6.40;;;17.80;99.90;;;;;;5107322;28;20067;-62
2022/07/18 00:44:31;;;;;;;9.13;6.13;;;17.70;99.90;;;;;;5107168;28;20036;-63
2022/07/18 00:47:00;;;;;;;10.48;6.15;;;17.70;99.90;;;;;;5093378;28;20089;-62
2022/07/18 00:49:26;;;;;;;12.50;6.82;;;17.70;99.90;;;;;;5099429;28;20031;-62
2022/07/18 00:51:52;;;;;;;9.00;6.30;;;17.60;99.90;;;;;;5105848;28;20035;-62
2022/07/18 00:54:18;;;;;;;9.85;6.47;;;17.60;99.90;;;;;;5095397;28;20397;-62
2022/07/18 00:56:45;;;;;;;9.40;6.38;;;17.60;99.90;;;;;;5087327;28;20079;-63
2022/07/18 00:59:11;;;;;;;8.75;6.38;;;17.60;99.90;;;;;;5104467;28;20059;-62
2022/07/18 01:01:46;;;;;;;9.75;6.40;;;17.50;99.90;;;;;;5093970;28;20040;-62
2022/07/18 01:04:21;;;;;;;11.50;6.68;;;17.50;99.90;;;;;;5100899;28;20512;-62
2022/07/18 01:06:48;;;;;;;9.65;6.72;;;17.50;99.90;;;;;;5106356;28;20043;-63
2022/07/18 01:09:15;;;;;;;8.05;6.28;;;17.40;99.90;;;;;;5103549;28;20462;-62
2022/07/18 01:11:42;;;;;;;11.05;6.50;;;17.40;99.90;;;;;;5105936;28;20047;-62
2022/07/18 01:14:08;;;;;;;13.15;6.97;;;17.40;99.90;;;;;;5103962;28;20100;-62
2022/07/18 01:16:34;;;;;;;9.18;6.60;;;17.40;99.90;;;;;;5106468;28;20086;-62
2022/07/18 01:19:00;;;;;;;11.05;6.93;;;17.30;99.90;;;;;;5103554;28;20044;-62
2022/07/18 01:21:26;;;;;;;9.95;6.53;;;17.30;99.90;;;;;;5098980;28;20096;-62
2022/07/18 01:23:52;;;;;;;12.13;7.15;;;17.30;99.90;;;;;;5095828;28;20494;-62
2022/07/18 01:26:18;;;;;;;10.20;6.75;;;17.20;99.90;;;;;;5091553;28;20462;-63
2022/07/18 01:28:44;;;;;;;10.70;7.00;;;17.20;99.90;;;;;;5106221;28;20039;-62
2022/07/18 01:31:10;;;;;;;11.32;7.32;;;17.20;99.90;;;;;;5109811;28;20470;-62
2022/07/18 01:33:36;;;;;;;11.73;7.60;;;17.20;99.90;;;;;;5110575;28;20046;-62
2022/07/18 01:36:04;;;;;;;11.73;7.20;;;17.20;99.90;;;;;;5109908;28;20410;-62
2022/07/18 01:38:31;;;;;;;9.55;6.32;;;17.10;99.90;;;;;;5109828;28;20044;-62
2022/07/18 01:40:57;;;;;;;11.23;7.15;;;17.10;99.90;;;;;;5111445;28;20070;-62
2022/07/18 01:43:24;;;;;;;11.77;6.40;;;17.10;99.90;;;;;;5105170;28;20086;-62
2022/07/18 01:45:50;;;;;;;9.43;6.78;;;17.00;99.90;;;;;;5121259;27;20682;-63
2022/07/18 01:48:16;;;;;;;10.30;6.22;;;17.00;99.90;;;;;;5101525;28;20040;-62
2022/07/18 01:50:42;;;;;;;10.25;7.00;;;17.00;99.90;;;;;;5095802;28;20039;-62
2022/07/18 01:53:08;;;;;;;11.77;7.47;;;17.00;99.90;;;;;;5109167;28;20046;-63
2022/07/18 01:55:33;;;;;;;11.38;7.18;;;17.00;99.90;;;;;;5109454;28;20036;-63
2022/07/18 01:57:59;;;;;;;10.27;6.95;;;16.90;99.90;;;;;;5101242;28;20055;-62
2022/07/18 02:00:25;;;;;;;10.93;6.85;;;16.90;99.90;;;;;;5101533;28;20031;-62
2022/07/18 02:02:50;;;;;;;10.77;7.03;;;16.90;99.90;;;;;;5108668;28;20075;-62
2022/07/18 02:05:16;;;;;;;11.35;6.90;;;16.80;99.90;;;;;;5106514;28;20074;-62
2022/07/18 02:07:42;;;;;;;10.15;6.95;;;16.90;99.90;;;;;;5091060;28;20047;-62
2022/07/18 02:10:11;;;;;;;8.85;6.53;;;16.90;99.90;;;;;;5110629;28;20364;-62
2022/07/18 02:12:38;;;;;;;9.50;7.18;;;16.80;99.90;;;;;;5110035;28;20477;-62
2022/07/18 02:15:06;;;;;;;10.70;7.32;;;16.80;99.90;;;;;;5109474;28;20481;-63
2022/07/18 02:17:32;;;;;;;11.13;7.30;;;16.80;99.90;;;;;;5110518;28;20443;-62
2022/07/18 02:19:57;;;;;;;12.43;7.78;;;16.80;99.90;;;;;;5105468;28;20097;-62
2022/07/18 02:22:24;;;;;;;10.93;7.43;;;16.70;99.90;;;;;;5093010;28;20390;-62
2022/07/18 02:24:50;;;;;;;13.90;8.50;;;16.70;99.90;;;;;;5106233;28;20113;-62
2022/07/18 02:27:15;;;;;;;11.98;7.70;;;16.70;99.90;;;;;;5095876;28;20046;-62
2022/07/18 02:29:41;;;;;;;10.30;7.50;;;16.60;99.90;;;;;;5104444;28;20036;-63
2022/07/18 02:32:07;;;;;;;12.23;7.85;;;16.60;99.90;;;;;;5099178;28;20100;-62
2022/07/18 02:34:33;;;;;;;13.30;8.10;;;16.70;99.90;;;;;;5102836;28;20397;-63
2022/07/18 02:36:59;;;;;;;11.18;7.47;;;16.60;99.90;;;;;;5090132;27;20505;-62
2022/07/18 02:39:24;;;;;;;11.57;8.02;;;16.60;99.90;;;;;;5098808;28;20525;-62
2022/07/18 02:41:50;;;;;;;12.25;8.25;;;16.50;99.90;;;;;;5108338;28;20040;-62
2022/07/18 02:44:16;;;;;;;11.82;7.90;;;16.50;99.90;;;;;;5102776;28;20112;-62
2022/07/18 02:46:42;;;;;;;12.25;8.05;;;16.50;99.90;;;;;;5109376;28;20447;-63
2022/07/18 02:49:07;;;;;;;11.10;7.85;;;16.50;99.90;;;;;;5107351;28;20047;-62
2022/07/18 02:51:34;;;;;;;12.88;8.30;;;16.40;99.90;;;;;;5109777;28;20477;-62
2022/07/18 02:53:59;;;;;;;10.65;7.80;;;16.40;99.90;;;;;;5105690;28;20463;-62
2022/07/18 02:56:25;;;;;;;13.02;8.13;;;16.40;99.90;;;;;;5107543;28;20071;-63
2022/07/18 02:58:50;;;;;;;10.45;7.90;;;16.40;99.90;;;;;;5109101;28;20043;-62
2022/07/18 03:01:16;;;;;;;11.02;8.23;;;16.40;99.90;;;;;;5101265;28;20398;-62
2022/07/18 03:03:42;;;;;;;11.88;7.88;;;16.30;99.90;;;;;;5099185;28;20035;-62
2022/07/18 03:06:08;;;;;;;13.57;8.25;;;16.30;99.90;;;;;;5099822;28;20043;-62
2022/07/18 03:08:33;;;;;;;11.75;8.88;;;16.30;99.90;;;;;;5103685;28;20400;-63
2022/07/18 03:10:59;;;;;;;12.02;8.27;;;16.30;99.90;;;;;;5107607;28;20470;-62
2022/07/18 03:13:24;;;;;;;15.40;8.98;;;16.20;99.90;;;;;;5109568;28;20504;-62
2022/07/18 03:15:50;;;;;;;15.75;8.95;;;16.20;99.90;;;;;;5109068;28;20077;-62
2022/07/18 03:18:17;;;;;;;11.93;8.85;;;16.20;99.90;;;;;;5107634;28;20063;-62
2022/07/18 03:20:42;;;;;;;12.25;8.48;;;16.20;99.90;;;;;;5108795;28;20051;-62
2022/07/18 03:23:08;;;;;;;12.55;8.35;;;16.20;99.90;;;;;;5092188;28;20062;-62
2022/07/18 03:25:34;;;;;;;11.95;8.07;;;16.10;99.90;;;;;;5107429;28;20097;-63
2022/07/18 03:28:00;;;;;;;14.63;9.05;;;16.10;99.90;;;;;;5107844;28;20085;-62
2022/07/18 03:30:25;;;;;;;11.85;8.52;;;16.20;99.90;;;;;;5106946;28;20075;-62
2022/07/18 03:32:51;;;;;;;14.07;8.25;;;16.10;99.90;;;;;;5096039;28;20040;-62
2022/07/18 03:35:17;;;;;;;11.57;8.60;;;16.10;99.90;;;;;;5104014;28;20120;-63
2022/07/18 03:37:43;;;;;;;12.70;8.65;;;16.10;99.90;;;;;;5103209;28;20071;-62
2022/07/18 03:40:09;;;;;;;15.38;8.70;;;16.10;99.90;;;;;;5100926;28;20067;-62
2022/07/18 03:42:41;;;;;;;11.80;8.48;;;16.10;99.90;;;;;;5088952;28;20047;-62
2022/07/18 03:45:08;;;;;;;13.88;8.32;;;16.10;99.90;;;;;;5094227;28;20069;-63
2022/07/18 03:47:34;;;;;;;11.60;8.30;;;16.10;99.90;;;;;;5099811;28;20036;-62
2022/07/18 03:50:00;;;;;;;12.98;8.50;;;16.10;99.90;;;;;;5089587;28;20475;-62
2022/07/18 03:52:25;;;;;;;12.60;9.30;;;16.10;99.90;;;;;;5101697;28;20100;-62
2022/07/18 03:54:51;;;;;;;13.00;9.13;;;16.10;99.90;;;;;;5102140;28;20134;-62
2022/07/18 03:57:16;;;;;;;11.48;8.40;;;16.20;99.90;;;;;;5088420;28;20416;-62
2022/07/18 03:59:42;;;;;;;15.90;9.82;;;16.20;99.90;;;;;;5088912;28;20036;-62
2022/07/18 04:02:07;;;;;;;11.80;8.45;;;16.20;99.90;;;;;;5094707;28;20142;-62
2022/07/18 04:04:33;;;;;;;13.45;8.55;;;16.20;99.90;;;;;;5108868;28;20090;-63
2022/07/18 04:06:59;;;;;;;12.38;8.55;;;16.20;99.90;;;;;;5106815;28;20043;-62
2022/07/18 04:09:28;;;;;;;12.50;8.43;;;16.20;99.90;;;;;;5109079;28;20096;-62
2022/07/18 04:11:53;;;;;;;13.18;8.55;;;16.40;99.90;;;;;;5108159;28;20478;-62
2022/07/18 04:14:19;;;;;;;11.38;8.13;;;16.30;99.90;;;;;;5106814;28;20073;-62
2022/07/18 04:16:46;;;;;;;14.73;8.70;;;16.30;99.90;;;;;;5090180;28;20083;-62
2022/07/18 04:19:11;;;;;;;12.88;8.07;;;16.40;99.90;;;;;;5108055;28;20039;-62
2022/07/18 04:21:37;;;;;;;10.52;7.75;;;16.40;99.90;;;;;;5107640;28;20048;-63
2022/07/18 04:24:03;;;;;;;12.65;8.18;;;16.50;99.90;;;;;;5104569;28;20502;-62
2022/07/18 04:26:28;;;;;;;12.68;8.00;;;16.50;99.90;;;;;;5100532;28;20043;-62
2022/07/18 04:28:54;;;;;;;10.65;7.28;;;16.50;99.90;;;;;;5107045;28;20066;-62
2022/07/18 04:31:20;;;;;;;11.68;7.90;;;16.50;99.90;;;;;;5098606;28;20486;-62
2022/07/18 04:33:45;;;;;;;11.43;7.35;;;16.60;99.90;;;;;;5093930;28;20051;-62
2022/07/18 04:36:11;;;;;;;10.68;7.05;;;16.60;99.90;;;;;;5095557;28;20324;-63
2022/07/18 04:38:37;;;;;;;9.98;7.22;;;16.60;99.90;;;;;;5108215;28;20184;-63
2022/07/18 04:41:04;;;;;;;10.15;7.25;;;16.70;99.90;;;;;;5104809;28;20055;-62
2022/07/18 04:43:30;;;;;;;11.38;7.68;;;16.70;99.90;;;;;;5108802;28;20334;-62
2022/07/18 04:45:56;;;;;;;12.48;7.15;;;16.80;99.90;;;;;;5103803;28;20485;-63
2022/07/18 04:48:22;;;;;;;12.82;7.00;;;16.90;99.90;;;;;;5106583;28;20099;-62
2022/07/18 04:50:47;;;;;;;11.25;7.30;;;16.90;99.90;;;;;;5088500;28;20527;-65
2022/07/18 04:53:13;;;;;;;10.82;7.30;;;17.00;99.90;;;;;;5103570;28;20487;-64
2022/07/18 04:55:39;;;;;;;10.63;6.40;;;17.10;99.90;;;;;;5098665;28;20399;-62
2022/07/18 04:58:04;;;;;;;13.02;7.18;;;17.10;99.90;;;;;;5107504;28;20130;-63
2022/07/18 05:00:31;;;;;;;10.93;6.82;;;17.10;99.90;;;;;;5107723;28;20044;-63
2022/07/18 05:02:57;;;;;;;8.93;6.28;;;17.20;99.90;;;;;;5098892;28;20527;-62
2022/07/18 05:05:25;;;;;;;17.38;7.28;;;17.30;99.90;;;;;;5106316;28;20060;-62
2022/07/18 05:07:51;;;;;;;9.93;6.93;;;17.40;99.90;;;;;;5100538;28;20044;-64
2022/07/18 05:10:19;;;;;;;10.70;6.30;;;17.60;99.90;;;;;;5098219;28;20046;-62
2022/07/18 05:12:47;;;;;;;9.48;6.68;;;17.80;99.90;;;;;;5108188;28;20053;-62
2022/07/18 05:15:15;;;;;;;8.77;6.00;;;18.00;99.90;;;;;;5104541;28;20027;-62
2022/07/18 05:17:42;;;;;;;11.38;6.45;;;18.20;99.90;;;;;;5108316;28;20130;-62
2022/07/18 05:20:10;;;;;;;9.43;5.90;;;18.30;99.90;;;;;;5110979;28;20406;-61
2022/07/18 05:22:36;;;;;;;9.40;6.00;;;18.50;99.90;;;;;;5110897;28;20058;-62
2022/07/18 05:25:04;;;;;;;9.32;6.53;;;18.60;99.90;;;;;;5109871;28;20180;-62
2022/07/18 05:27:29;;;;;;;8.82;5.97;;;18.70;99.90;;;;;;5110460;28;20065;-62
2022/07/18 05:29:55;;;;;;;9.27;6.07;;;18.70;99.90;;;;;;5110027;28;20595;-62
2022/07/18 05:32:21;;;;;;;8.98;5.88;;;18.80;99.90;;;;;;5111790;28;20074;-62
2022/07/18 05:34:47;;;;;;;7.95;5.57;;;18.90;99.90;;;;;;5108114;28;20070;-62
2022/07/18 05:37:13;;;;;;;8.45;5.70;;;18.90;99.90;;;;;;5108021;28;20039;-62
2022/07/18 05:39:38;;;;;;;8.70;6.10;;;18.90;99.90;;;;;;5111654;28;20131;-62
2022/07/18 05:42:04;;;;;;;7.57;5.28;;;18.90;99.90;;;;;;5110080;28;20039;-62
2022/07/18 05:44:30;;;;;;;8.77;5.70;;;18.90;99.90;;;;;;5110485;27;20127;-62
2022/07/18 05:46:56;;;;;;;10.75;5.38;;;18.90;99.90;;;;;;5110249;28;20084;-62
2022/07/18 05:49:22;;;;;;;9.52;5.05;;;18.90;99.90;;;;;;5112349;28;20065;-61
2022/07/18 05:51:47;;;;;;;10.43;5.38;;;18.90;99.90;;;;;;5109798;28;20036;-63
2022/07/18 05:54:18;;;;;;;8.82;5.03;;;18.90;99.90;;;;;;5110878;28;20177;-62
2022/07/18 05:56:45;;;;;;;8.60;4.88;;;19.00;99.90;;;;;;5108405;28;20066;-62
2022/07/18 05:59:11;;;;;;;8.27;4.80;;;19.00;99.90;;;;;;5110716;28;20051;-62
2022/07/18 06:01:36;;;;;;;7.68;4.82;;;19.00;99.90;;;;;;5110499;28;20344;-62
2022/07/18 06:04:02;;;;;;;8.55;5.20;;;19.10;99.80;;;;;;5110696;28;20036;-62
2022/07/18 06:06:29;;;;;;;9.70;5.22;;;19.10;99.50;;;;;;5107796;27;20115;-62
2022/07/18 06:08:54;;;;;;;8.70;5.32;;;19.20;99.30;;;;;;5109442;27;20098;-64
2022/07/18 06:11:20;;;;;;;10.10;5.00;;;19.30;99.10;;;;;;5110022;28;20088;-63
2022/07/18 06:13:45;;;;;;;11.23;5.10;;;19.30;98.90;;;;;;5109714;28;20035;-62
2022/07/18 06:16:11;;;;;;;8.55;5.40;;;19.40;98.70;;;;;;5109235;28;20074;-62
2022/07/18 06:18:36;;;;;;;10.40;5.15;;;19.50;98.50;;;;;;5111034;28;20135;-63
2022/07/18 06:21:03;;;;;;;7.90;4.85;;;19.60;98.40;;;;;;5109355;28;20067;-63
2022/07/18 06:23:29;;;;;;;7.95;4.53;;;19.70;98.40;;;;;;5110086;28;20126;-63
2022/07/18 06:25:56;;;;;;;8.48;5.18;;;19.80;98.40;;;;;;5109644;28;20088;-63
2022/07/18 06:28:22;;;;;;;8.25;5.03;;;19.90;98.30;;;;;;5110260;28;20083;-62
2022/07/18 06:30:47;;;;;;;9.95;5.85;;;20.00;98.40;;;;;;5109781;28;20505;-64
2022/07/18 06:33:13;;;;;;;8.63;4.75;;;20.10;98.40;;;;;;5108347;28;20430;-63
2022/07/18 06:35:40;;;;;;;10.52;5.20;;;20.10;98.30;;;;;;5110640;28;20118;-63
2022/07/18 06:38:05;;;;;;;7.30;4.32;;;20.20;98.10;;;;;;5109130;28;20130;-63
2022/07/18 06:40:31;;;;;;;7.00;4.50;;;20.30;97.90;;;;;;5110005;28;20605;-62
2022/07/18 06:42:57;;;;;;;8.63;4.15;;;20.40;97.80;;;;;;5108437;28;20188;-63
2022/07/18 06:45:22;;;;;;;8.57;4.60;;;20.50;97.70;;;;;;5108723;28;20040;-63
2022/07/18 06:47:48;;;;;;;8.30;4.45;;;20.70;97.40;;;;;;5104397;28;20393;-63
2022/07/18 06:50:14;;;;;;;6.55;4.10;;;20.90;97.20;;;;;;5117233;27;20040;-63
2022/07/18 06:52:41;;;;;;;7.82;4.35;;;21.10;96.90;;;;;;5106865;28;20100;-63
2022/07/18 06:55:07;;;;;;;6.93;4.00;;;21.30;96.80;;;;;;5106690;28;20498;-63
2022/07/18 06:57:33;;;;;;;8.02;4.13;;;21.50;96.60;;;;;;5108886;28;20119;-63
2022/07/18 06:59:59;;;;;;;8.40;3.65;;;21.70;96.00;;;;;;5105303;27;20118;-64
2022/07/18 07:02:25;;;;;;;7.38;3.10;;;21.90;95.50;;;;;;5098805;28;20071;-63
2022/07/18 07:04:50;;;;;;;6.28;3.13;;;22.10;95.00;;;;;;5109469;28;20050;-63
2022/07/18 07:07:16;;;;;;;8.95;3.35;;;22.20;94.90;;;;;;5108934;28;20043;-63
2022/07/18 07:09:42;;;;;;;6.55;3.53;;;22.20;93.90;;;;;;5109599;28;20082;-62
2022/07/18 07:12:07;;;;;;;6.43;3.38;;;22.30;93.70;;;;;;5108850;28;20127;-62
2022/07/18 07:14:33;;;;;;;7.03;3.42;;;22.40;93.50;;;;;;5110337;28;20133;-62
2022/07/18 07:16:58;;;;;;;5.78;3.10;;;22.50;93.50;;;;;;5087854;28;20470;-62
2022/07/18 07:19:24;;;;;;;7.85;3.40;;;22.50;93.30;;;;;;5103704;28;20043;-62
2022/07/18 07:21:50;;;;;;;6.95;3.10;;;22.60;93.00;;;;;;5107479;28;20055;-65
2022/07/18 07:24:15;;;;;;;7.18;3.30;;;22.70;92.90;;;;;;5109913;28;20120;-63
2022/07/18 07:26:41;;;;;;;9.10;3.60;;;22.70;92.80;;;;;;5107308;28;20063;-63
2022/07/18 07:29:06;;;;;;;6.93;3.55;;;22.90;92.70;;;;;;5110739;27;20407;-63
2022/07/18 07:31:32;;;;;;;6.15;3.38;;;23.00;92.40;;;;;;5122912;27;20232;-63
2022/07/18 07:33:58;;;;;;;6.85;3.13;;;23.10;92.30;;;;;;5108851;27;21282;-64
2022/07/18 07:36:24;;;;;;;6.03;3.03;;;23.10;92.10;;;;;;5102831;28;20043;-64
2022/07/18 07:38:49;;;;;;;10.05;3.33;;;23.10;92.10;;;;;;5107524;28;20047;-63
2022/07/18 07:41:15;;;;;;;7.05;3.20;;;23.10;91.60;;;;;;5108908;28;20433;-63
2022/07/18 07:43:41;;;;;;;7.05;3.38;;;23.10;91.60;;;;;;5108529;28;20063;-63
2022/07/18 07:46:06;;;;;;;6.38;3.10;;;23.20;91.40;;;;;;5108202;28;20234;-63
2022/07/18 07:48:32;;;;;;;5.70;2.88;;;23.40;91.40;;;;;;5101441;28;20035;-63
2022/07/18 07:50:57;;;;;;;6.05;3.08;;;23.40;91.20;;;;;;5102812;28;20051;-65
2022/07/18 07:53:23;;;;;;;7.40;2.92;;;23.40;91.00;;;;;;5109331;28;20347;-64
2022/07/18 07:55:49;;;;;;;6.57;2.70;;;23.40;91.00;;;;;;5099227;28;20051;-64
2022/07/18 07:58:14;;;;;;;6.13;3.25;;;23.50;91.00;;;;;;5088159;28;20052;-63
2022/07/18 08:00:40;;;;;;;7.82;2.80;;;23.70;91.00;;;;;;5097351;28;20055;-64
2022/07/18 08:03:07;;;;;;;6.63;2.55;;;23.80;90.90;;;;;;5103804;28;20040;-64
2022/07/18 08:05:35;;;;;;;6.57;2.60;;;23.80;90.40;;;;;;5102427;28;20064;-63
2022/07/18 08:08:01;;;;;;;10.25;3.33;;;23.90;89.40;;;;;;5105452;28;20036;-64
2022/07/18 08:10:28;;;;;;;8.10;2.60;;;23.90;87.80;;;;;;5104869;27;20054;-64
2022/07/18 08:12:53;;;;;;;8.27;2.97;;;23.90;87.50;;;;;;5103656;28;20395;-65
2022/07/18 08:15:19;;;;;;;6.28;2.55;;;24.00;87.00;;;;;;5102712;28;20058;-65
2022/07/18 08:17:45;;;;;;;8.30;2.75;;;24.20;86.80;;;;;;5106245;28;20027;-64
2022/07/18 08:20:11;;;;;;;7.22;2.67;;;24.40;86.60;;;;;;5101710;28;20166;-66
2022/07/18 08:22:54;;;;;;;7.70;2.65;;;24.50;85.60;;;;;;5108306;28;20063;-65
2022/07/18 08:25:20;;;;;;;6.90;2.25;;;24.70;84.50;;;;;;5108919;28;20052;-65
2022/07/18 08:27:46;;;;;;;8.90;2.45;;;24.80;84.90;;;;;;5107803;28;20031;-66
2022/07/18 08:30:11;;;;;;;8.52;2.40;;;25.00;83.70;;;;;;5105684;28;20067;-65
2022/07/18 08:32:37;;;;;;;7.70;2.83;;;25.10;82.00;;;;;;5103119;28;20043;-64
2022/07/18 08:35:03;;;;;;;8.15;2.70;;;25.20;81.20;;;;;;5104928;28;20048;-65
2022/07/18 08:37:29;;;;;;;5.85;2.25;;;25.40;81.10;;;;;;5104817;28;20091;-64
2022/07/18 08:39:55;;;;;;;5.13;2.20;;;25.60;81.50;;;;;;5106121;28;20051;-66
2022/07/18 08:42:25;;;;;;;9.90;2.45;;;25.90;81.40;;;;;;5103725;28;20036;-64
2022/07/18 08:44:54;;;;;;;7.22;2.53;;;26.20;80.20;;;;;;5100713;28;20578;-65
2022/07/18 08:47:20;;;;;;;4.60;2.35;;;26.40;79.40;;;;;;5100441;28;20044;-65
2022/07/18 08:49:47;;;;;;;6.05;2.65;;;26.50;78.50;;;;;;5110014;28;20044;-66
2022/07/18 08:52:13;;;;;;;7.88;2.67;;;26.60;77.20;;;;;;5109473;28;20043;-65
2022/07/18 08:54:39;;;;;;;6.03;2.72;;;26.60;77.10;;;;;;5109967;28;20031;-65
2022/07/18 08:57:04;;;;;;;5.68;1.95;;;26.60;75.90;;;;;;5107816;28;20058;-65
2022/07/18 08:59:30;;;;;;;5.82;2.30;;;26.60;75.80;;;;;;5108555;28;20119;-65
2022/07/18 09:01:55;;;;;;;6.78;2.40;;;26.70;75.20;;;;;;5105976;28;20043;-65
2022/07/18 09:04:38;;;;;;;6.88;2.25;;;26.80;74.70;;;;;;5109011;28;20050;-65
2022/07/18 09:07:06;;;;;;;5.43;2.00;;;26.90;74.00;;;;;;5105850;28;20098;-65
2022/07/18 09:09:32;;;;;;;4.38;2.15;;;26.90;74.50;;;;;;5105488;28;20547;-65
2022/07/18 09:12:04;;;;;;;6.43;2.10;;;27.00;73.00;;;;;;5106757;28;20051;-65
2022/07/18 09:14:42;;;;;;;5.72;1.70;;;27.10;72.70;;;;;;5103565;28;20126;-66
2022/07/18 09:17:21;;;;;;;6.93;1.92;;;27.30;72.00;;;;;;5101266;28;20503;-65
2022/07/18 09:20:05;;;;;;;6.18;1.90;;;27.50;69.60;;;;;;5105698;28;20533;-65
2022/07/18 09:22:42;;;;;;;5.90;1.90;;;27.70;69.20;;;;;;5103705;28;20364;-66
2022/07/18 09:25:14;;;;;;;4.72;1.60;;;27.90;69.40;;;;;;5106164;28;20112;-64
2022/07/18 09:27:41;;;;;;;5.72;1.95;;;28.00;68.70;;;;;;5105286;28;20470;-64
2022/07/18 09:30:33;;;;;;;4.20;1.65;;;28.10;68.10;;;;;;5105839;28;20043;-64
2022/07/18 09:33:06;;;;;;;7.35;2.28;;;28.20;67.10;;;;;;5097130;28;20185;-64
2022/07/18 09:35:35;;;;;;;5.55;1.70;;;28.40;67.00;;;;;;5097937;28;20044;-64
2022/07/18 09:38:09;;;;;;;5.40;1.90;;;28.30;65.50;;;;;;5106473;28;20062;-64
2022/07/18 09:40:41;;;;;;;6.40;1.70;;;28.30;65.40;;;;;;5107703;28;20040;-64
2022/07/18 09:43:09;;;;;;;5.25;2.20;;;28.30;65.10;;;;;;5105371;28;20039;-64
2022/07/18 09:45:35;;;;;;;4.78;2.25;;;28.30;64.90;;;;;;5110012;28;20099;-64
2022/07/18 09:48:04;;;;;;;7.65;1.88;;;28.50;65.50;;;;;;5106334;28;20494;-64
2022/07/18 09:50:33;;;;;;;5.22;1.92;;;28.40;63.80;;;;;;5109575;28;20047;-64
2022/07/18 09:53:07;;;;;;;5.53;1.85;;;28.60;65.10;;;;;;5109768;28;20043;-64
2022/07/18 09:55:34;;;;;;;4.53;1.90;;;28.70;64.20;;;;;;5106976;28;20050;-64
2022/07/18 09:58:07;;;;;;;3.88;1.92;;;28.90;63.80;;;;;;5104745;27;20044;-65
2022/07/18 10:00:35;;;;;;;5.65;2.20;;;28.90;63.30;;;;;;5109002;28;20044;-64
2022/07/18 10:03:03;;;;;;;5.90;2.10;;;28.90;61.70;;;;;;5109560;28;20491;-64
2022/07/18 10:05:31;;;;;;;5.30;1.80;;;29.00;62.60;;;;;;5107673;28;20103;-64
2022/07/18 10:07:58;;;;;;;4.78;1.60;;;29.10;61.30;;;;;;5107534;28;20097;-64
2022/07/18 10:10:24;;;;;;;6.95;2.30;;;29.10;59.70;;;;;;5109975;28;20066;-64
2022/07/18 10:12:53;;;;;;;5.68;2.20;;;29.10;59.40;;;;;;5104756;28;20108;-65
2022/07/18 10:15:21;;;;;;;4.88;1.95;;;29.10;58.20;;;;;;5108413;28;20451;-65
2022/07/18 10:17:47;;;;;;;9.93;2.45;;;29.20;59.00;;;;;;5107965;28;20418;-64
2022/07/18 10:20:15;;;;;;;4.85;1.90;;;29.40;59.20;;;;;;5107559;28;20051;-65
2022/07/18 10:22:42;;;;;;;4.70;2.00;;;29.40;58.30;;;;;;5107260;28;20059;-64
2022/07/18 10:25:12;;;;;;;4.85;1.92;;;29.60;58.10;;;;;;5109130;27;20050;-65
2022/07/18 10:27:49;;;;;;;5.88;2.20;;;29.60;57.90;;;;;;5105838;28;20407;-64
2022/07/18 10:30:15;;;;;;;5.15;2.17;;;29.80;57.10;;;;;;5108498;28;20043;-64
2022/07/18 10:32:42;;;;;;;5.07;2.10;;;29.90;57.20;;;;;;5109143;28;20070;-64
2022/07/18 10:35:10;;;;;;;3.95;1.90;;;30.00;56.80;;;;;;5107345;28;20043;-64
2022/07/18 10:37:37;;;;;;;5.35;1.70;;;30.10;56.70;;;;;;5101550;28;20051;-64
2022/07/18 10:40:28;;;;;;;6.38;2.15;;;30.20;55.90;;;;;;5107733;28;20052;-64
2022/07/18 10:43:29;;;;;;;7.38;2.13;;;30.40;55.70;;;;;;5105918;28;20059;-64
2022/07/18 10:45:54;;;;;;;4.15;1.77;;;30.50;55.50;;;;;;5107938;28;20055;-65
2022/07/18 10:48:32;;;;;;;6.22;2.20;;;30.50;55.20;;;;;;5106269;28;21273;-64
2022/07/18 10:51:02;;;;;;;4.97;2.03;;;30.60;52.90;;;;;;5105944;28;20039;-64
2022/07/18 10:54:01;;;;;;;6.50;2.40;;;30.60;53.10;;;;;;5103594;27;20043;-64
2022/07/18 10:56:27;;;;;;;4.40;2.00;;;30.40;53.10;;;;;;5104541;28;20086;-64
2022/07/18 10:58:55;;;;;;;4.45;2.38;;;30.30;52.80;;;;;;5107587;28;20411;-64
2022/07/18 11:01:23;;;;;;;5.40;2.55;;;30.40;52.20;;;;;;5107275;28;20043;-64
2022/07/18 11:03:49;;;;;;;6.07;2.50;;;30.40;51.50;;;;;;5108064;28;20051;-64
2022/07/18 11:06:15;;;;;;;5.20;2.47;;;30.40;51.60;;;;;;5106385;28;20040;-65
2022/07/18 11:08:41;;;;;;;5.30;2.50;;;30.50;51.90;;;;;;5106245;28;20146;-64
2022/07/18 11:11:09;;;;;;;5.30;2.65;;;30.60;51.30;;;;;;5107138;28;20115;-64
2022/07/18 11:13:40;;;;;;;4.78;2.63;;;30.70;51.90;;;;;;5108014;28;20039;-63
2022/07/18 11:16:21;;;;;;;5.63;2.67;;;30.80;50.50;;;;;;5103469;27;20051;-63
2022/07/18 11:18:47;;;;;;;4.50;2.35;;;30.80;50.80;;;;;;5102945;28;20080;-64
2022/07/18 11:21:32;;;;;;;5.85;2.42;;;31.00;50.50;;;;;;5107927;28;20035;-64
2022/07/18 11:24:09;;;;;;;6.18;2.72;;;31.10;51.50;;;;;;5107529;27;20067;-64
2022/07/18 11:26:37;;;;;;;4.43;2.33;;;31.10;51.80;;;;;;5107725;28;20040;-64
2022/07/18 11:29:09;;;;;;;5.07;2.40;;;31.20;51.90;;;;;;5106258;28;20036;-64
2022/07/18 11:31:53;;;;;;;6.82;2.72;;;31.40;51.10;;;;;;5104749;28;20063;-64
2022/07/18 11:34:20;;;;;;;6.18;2.45;;;31.50;50.70;;;;;;5093137;28;20173;-64
2022/07/18 11:36:47;;;;;;;6.20;2.63;;;31.40;50.20;;;;;;5105200;28;20431;-64
2022/07/18 11:39:16;;;;;;;6.75;3.00;;;31.50;48.60;;;;;;5109280;28;20084;-65
2022/07/18 11:41:42;;;;;;;4.88;2.75;;;31.50;48.30;;;;;;5104212;28;20237;-65
2022/07/18 11:44:26;;;;;;;5.28;2.67;;;31.80;49.50;;;;;;5100650;28;20035;-64
2022/07/18 11:47:01;;;;;;;6.57;2.45;;;31.90;49.80;;;;;;5104236;28;20044;-64
2022/07/18 11:49:27;;;;;;;5.57;2.60;;;32.10;50.00;;;;;;5109605;28;20043;-64
2022/07/18 11:51:53;;;;;;;4.82;2.58;;;32.10;49.50;;;;;;5120935;27;20199;-65
2022/07/18 11:54:25;;;;;;;4.57;2.22;;;32.20;48.90;;;;;;5103736;28;20028;-65
2022/07/18 11:56:53;;;;;;;5.18;2.30;;;32.30;49.50;;;;;;5106654;28;20553;-65
2022/07/18 11:59:19;;;;;;;5.47;2.47;;;32.40;48.90;;;;;;5110506;28;20038;-64
2022/07/18 12:01:52;;;;;;;5.25;2.58;;;32.30;47.70;;;;;;5109024;28;20047;-63
2022/07/18 12:04:20;;;;;;;4.68;2.50;;;32.40;49.10;;;;;;5110074;28;20087;-64
2022/07/18 12:07:06;;;;;;;4.53;2.55;;;32.20;48.60;;;;;;5109232;28;20048;-65
2022/07/18 12:09:32;;;;;;;5.28;2.38;;;32.00;48.60;;;;;;5108845;28;20039;-66
2022/07/18 12:12:08;;;;;;;5.35;2.08;;;31.80;48.60;;;;;;5090652;28;20040;-66
2022/07/18 12:14:33;;;;;;;7.93;2.50;;;31.80;49.20;;;;;;5108526;28;20055;-66
2022/07/18 12:16:59;;;;;;;4.97;2.30;;;31.80;49.40;;;;;;5104032;28;20043;-66
2022/07/18 12:19:37;;;;;;;4.90;2.30;;;31.90;49.00;;;;;;5107822;28;20459;-66
2022/07/18 12:22:03;;;;;;;4.72;2.15;;;32.20;47.60;;;;;;5107161;28;20039;-66
2022/07/18 12:24:32;;;;;;;8.35;2.65;;;32.50;47.70;;;;;;5108031;28;20047;-66
2022/07/18 12:27:18;;;;;;;4.22;2.10;;;32.50;48.10;;;;;;5104715;28;20042;-66
2022/07/18 12:30:19;;;;;;;4.65;2.33;;;32.50;47.30;;;;;;5105900;28;20534;-66
2022/07/18 12:32:52;;;;;;;6.00;2.13;;;32.50;47.90;;;;;;5091096;28;20067;-65
2022/07/18 12:35:27;;;;;;;4.85;2.13;;;32.50;46.90;;;;;;5104704;28;20047;-64
2022/07/18 12:38:12;;;;;;;5.68;2.30;;;32.40;46.10;;;;;;5107694;28;20057;-65
2022/07/18 12:40:47;;;;;;;4.80;2.13;;;32.40;46.30;;;;;;5105689;28;20063;-65
2022/07/18 12:43:14;;;;;;;4.60;2.17;;;32.60;46.10;;;;;;5109731;28;20047;-65
2022/07/18 12:45:42;;;;;;;5.10;2.00;;;32.70;46.80;;;;;;5107650;28;20119;-65